No particular awareness of the weather is required.    There are no Weather-warnings

My Other Sites:

SYKIA HOMEWEATHERSTATIONsikeaweather.alinos.eu

SYKIA METEOTEMPLATEsykiameteo.alinos.eu

alinos.eualinos.eu



Nearby METAR Reports

   
LGEL - Elefsis (hel-Afb, Greece
Distance from station: E 77 km
Updated: 22-05-2018 23:50
NOT Current
Clear  
Clear  
   Wind: Calm
Wind: Calm
Temperature: 22°C
Dew Point: 11°C
Humidity: 50%
Barometer: 1017 hPa
Visibility: More than 10 km
Cloud details: Clear
LGEL 222050Z 00000KT CAVOK 22/11 Q1017
LGRX - Araxos (civ/Afb), Greece
Distance from station: W 110 km
Updated: 23-05-2018 00:50
NOT Current
Few Clouds  
Few Clouds  
   Wind: Calm
Wind: Calm
Temperature: 20°C
Dew Point: 16°C
Humidity: 78%
Barometer: 1016 hPa
Clouds: Few Clouds
Visibility: More than 10 km
Cloud details: Few Clouds 2500 ft
LGRX 222150Z 00000KT 9999 FEW025 20/16 Q1016 BLU
LGAV - Athens/Elef-Ven, Greece
Distance from station: E 113 km
Updated: 22-05-2018 23:50
NOT Current
Clear  
Clear  
   Wind: varies 5.6 km/h
Wind: varies 5.6 km/h
Temperature: 20°C
Dew Point: 11°C
Humidity: 56%
Barometer: 1018 hPa
Visibility: More than 10 km
Cloud details: Clear
LGAV 222050Z VRB03KT CAVOK 20/11 Q1018 NOSIG
LGAD - Andravida (civ/A, Greece
Distance from station: W 124 km
Updated: 22-05-2018 23:50
NOT Current
Few Clouds  
Few Clouds  
   Wind: varies 5.6 km/h
Wind: varies 5.6 km/h
Temperature: 20°C
Dew Point: 17°C
Humidity: 83%
Barometer: 1016 hPa
Clouds: Few Clouds
Visibility: More than 10 km
Cloud details: Few Clouds 8000 ft
LGAD 222050Z VRB03KT 9999 FEW080 20/17 Q1016
LGKL - Kalamata (hel-Af, Greece
Distance from station: SSW 124 km
Updated: 22-05-2018 23:50
NOT Current
Clear  
Clear  
   Wind: Calm
Wind: Calm
Temperature: 18°C
Dew Point: 16°C
Humidity: 88%
Barometer: 1016 hPa
Visibility: More than 10 km
Cloud details: Clear
LGKL 222050Z 00000KT CAVOK 18/16 Q1016
LGBL - Nea Anchialos, Greece
Distance from station: N 129 km
Updated: 23-05-2018 01:50
Clear  
Clear  
   Wind: West 3.7 km/h
Wind: West 3.7 km/h
Temperature: 15°C
Dew Point: 14°C
Humidity: 94%
Barometer: 1018 hPa
Visibility: More than 10 km
Cloud details: Clear
LGBL 222250Z 28002KT CAVOK 15/14 Q1018 RMK FEW180 BLU

Script developed by  Saratoga-weather.org Adapted for the template by  Weerstation Leuven

You find our weather info also at:

European Weather Network

Weather Underground

Citizen Weather Observer Program (CWOP)

HAMweather, WeatherForYou, PWS Weather

UK Metoffice

Equipment we use:

Weather-station
Davis Wireless Vantage Pro2

Davis Wireless Vantage Pro2